sensor_id;sensor_type;location;lat;lon;timestamp;pressure;altitude;pressure_sealevel;temperature;humidity
60101;BME280;45978;53.646;55.930;2022-07-23T00:00:58;99029.28;;;16.82;68.74
60101;BME280;45978;53.646;55.930;2022-07-23T00:01:59;99024.13;;;16.79;68.75
60101;BME280;45978;53.646;55.930;2022-07-23T00:03:00;99018.81;;;16.79;68.68
60101;BME280;45978;53.646;55.930;2022-07-23T00:04:01;99021.47;;;16.79;68.76
60101;BME280;45978;53.646;55.930;2022-07-23T00:05:03;99030.41;;;16.78;68.34
60101;BME280;45978;53.646;55.930;2022-07-23T00:06:05;99026.25;;;16.74;68.43
60101;BME280;45978;53.646;55.930;2022-07-23T00:07:06;99016.03;;;16.68;68.81
60101;BME280;45978;53.646;55.930;2022-07-23T00:08:07;99026.63;;;16.68;68.65
60101;BME280;45978;53.646;55.930;2022-07-23T00:09:08;99022.63;;;16.62;68.61
60101;BME280;45978;53.646;55.930;2022-07-23T00:10:09;99019.22;;;16.60;69.35
60101;BME280;45978;53.646;55.930;2022-07-23T00:11:12;99026.63;;;16.55;68.96
60101;BME280;45978;53.646;55.930;2022-07-23T00:12:13;99023.88;;;16.57;69.26
60101;BME280;45978;53.646;55.930;2022-07-23T00:13:14;99030.03;;;16.57;69.18
60101;BME280;45978;53.646;55.930;2022-07-23T00:14:15;99005.50;;;16.41;69.09
60101;BME280;45978;53.646;55.930;2022-07-23T00:15:16;99030.34;;;16.53;69.38
60101;BME280;45978;53.646;55.930;2022-07-23T00:16:17;99022.00;;;16.44;69.71
60101;BME280;45978;53.646;55.930;2022-07-23T00:17:18;99021.19;;;16.44;69.47
60101;BME280;45978;53.646;55.930;2022-07-23T00:18:20;99024.03;;;16.41;69.48
60101;BME280;45978;53.646;55.930;2022-07-23T00:19:21;99030.09;;;16.43;69.45
60101;BME280;45978;53.646;55.930;2022-07-23T00:20:22;99013.81;;;16.35;69.82
60101;BME280;45978;53.646;55.930;2022-07-23T00:21:23;99016.59;;;16.33;70.00
60101;BME280;45978;53.646;55.930;2022-07-23T00:22:24;99020.19;;;16.32;69.68
60101;BME280;45978;53.646;55.930;2022-07-23T00:23:26;99024.63;;;16.32;69.64
60101;BME280;45978;53.646;55.930;2022-07-23T00:24:28;99028.03;;;16.34;70.19
60101;BME280;45978;53.646;55.930;2022-07-23T00:25:29;99022.09;;;16.30;69.99
60101;BME280;45978;53.646;55.930;2022-07-23T00:26:30;99034.84;;;16.38;69.84
60101;BME280;45978;53.646;55.930;2022-07-23T00:27:33;99022.75;;;16.34;70.09
60101;BME280;45978;53.646;55.930;2022-07-23T00:28:34;99032.09;;;16.39;70.04
60101;BME280;45978;53.646;55.930;2022-07-23T00:29:35;99032.94;;;16.40;69.85
60101;BME280;45978;53.646;55.930;2022-07-23T00:30:37;99038.97;;;16.42;69.74
60101;BME280;45978;53.646;55.930;2022-07-23T00:31:38;99032.94;;;16.40;69.95
60101;BME280;45978;53.646;55.930;2022-07-23T00:32:52;99033.78;;;16.40;69.75
60101;BME280;45978;53.646;55.930;2022-07-23T00:33:54;99034.44;;;16.44;69.73
60101;BME280;45978;53.646;55.930;2022-07-23T00:34:58;99039.53;;;16.47;69.66
60101;BME280;45978;53.646;55.930;2022-07-23T00:35:59;99038.56;;;16.48;69.70
60101;BME280;45978;53.646;55.930;2022-07-23T00:37:00;99028.94;;;16.47;70.10
60101;BME280;45978;53.646;55.930;2022-07-23T00:38:03;99030.53;;;16.50;69.87
60101;BME280;45978;53.646;55.930;2022-07-23T00:39:05;99026.28;;;16.47;69.72
60101;BME280;45978;53.646;55.930;2022-07-23T00:40:07;99030.72;;;16.47;69.91
60101;BME280;45978;53.646;55.930;2022-07-23T00:41:08;99028.94;;;16.47;69.74
60101;BME280;45978;53.646;55.930;2022-07-23T00:42:09;99018.34;;;16.47;70.04
60101;BME280;45978;53.646;55.930;2022-07-23T00:43:10;99036.66;;;16.50;70.08
60101;BME280;45978;53.646;55.930;2022-07-23T00:44:16;99040.81;;;16.54;69.78
60101;BME280;45978;53.646;55.930;2022-07-23T00:45:17;99041.56;;;16.56;69.69
60101;BME280;45978;53.646;55.930;2022-07-23T00:46:21;99039.13;;;16.53;69.77
60101;BME280;45978;53.646;55.930;2022-07-23T00:47:22;99042.72;;;16.52;69.83
60101;BME280;45978;53.646;55.930;2022-07-23T00:48:23;99039.13;;;16.53;69.83
60101;BME280;45978;53.646;55.930;2022-07-23T00:49:27;99045.19;;;16.55;69.57
60101;BME280;45978;53.646;55.930;2022-07-23T00:50:30;99044.22;;;16.56;69.74
60101;BME280;45978;53.646;55.930;2022-07-23T00:51:31;99044.13;;;16.58;69.57
60101;BME280;45978;53.646;55.930;2022-07-23T00:52:32;99046.59;;;16.61;69.61
60101;BME280;45978;53.646;55.930;2022-07-23T00:53:34;99052.41;;;16.66;69.83
60101;BME280;45978;53.646;55.930;2022-07-23T00:54:35;99034.91;;;16.63;69.76
60101;BME280;45978;53.646;55.930;2022-07-23T00:55:38;99045.09;;;16.70;69.54
60101;BME280;45978;53.646;55.930;2022-07-23T00:56:39;99040.66;;;16.70;69.09
60101;BME280;45978;53.646;55.930;2022-07-23T00:57:42;99042.34;;;16.71;69.44
60101;BME280;45978;53.646;55.930;2022-07-23T00:58:44;99048.59;;;16.70;69.14
60101;BME280;45978;53.646;55.930;2022-07-23T00:59:45;99047.84;;;16.68;69.23
60101;BME280;45978;53.646;55.930;2022-07-23T01:00:46;99041.94;;;16.65;69.15
60101;BME280;45978;53.646;55.930;2022-07-23T01:01:48;99055.53;;;16.73;69.27
60101;BME280;45978;53.646;55.930;2022-07-23T01:02:50;99048.50;;;16.72;69.33
60101;BME280;45978;53.646;55.930;2022-07-23T01:03:51;99047.56;;;16.73;69.10
60101;BME280;45978;53.646;55.930;2022-07-23T01:04:53;99059.44;;;16.80;68.82
60101;BME280;45978;53.646;55.930;2022-07-23T01:05:55;99051.63;;;16.78;68.90
60101;BME280;45978;53.646;55.930;2022-07-23T01:06:56;99047.25;;;16.77;69.24
60101;BME280;45978;53.646;55.930;2022-07-23T01:07:58;99051.97;;;16.87;69.03
60101;BME280;45978;53.646;55.930;2022-07-23T01:08:59;99057.19;;;16.88;68.72
60101;BME280;45978;53.646;55.930;2022-07-23T01:10:00;99060.31;;;16.80;68.67
60101;BME280;45978;53.646;55.930;2022-07-23T01:11:04;99064.22;;;16.75;68.96
60101;BME280;45978;53.646;55.930;2022-07-23T01:12:07;99057.22;;;16.74;69.29
60101;BME280;45978;53.646;55.930;2022-07-23T01:13:09;99061.75;;;16.99;69.01
60101;BME280;45978;53.646;55.930;2022-07-23T01:14:19;99055.31;;;17.29;67.83
60101;BME280;45978;53.646;55.930;2022-07-23T01:15:21;99059.00;;;17.65;66.89
60101;BME280;45978;53.646;55.930;2022-07-23T01:16:23;99060.25;;;17.97;66.16
60101;BME280;45978;53.646;55.930;2022-07-23T01:17:25;99060.25;;;18.34;64.86
60101;BME280;45978;53.646;55.930;2022-07-23T01:18:26;99065.53;;;18.71;64.00
60101;BME280;45978;53.646;55.930;2022-07-23T01:19:28;99071.84;;;19.06;62.75
60101;BME280;45978;53.646;55.930;2022-07-23T01:20:30;99055.19;;;19.37;61.35
60101;BME280;45978;53.646;55.930;2022-07-23T01:21:35;99066.50;;;19.75;60.53
60101;BME280;45978;53.646;55.930;2022-07-23T01:22:36;99057.03;;;20.05;59.39
60101;BME280;45978;53.646;55.930;2022-07-23T01:23:37;99051.16;;;20.33;58.40
60101;BME280;45978;53.646;55.930;2022-07-23T01:24:39;99049.72;;;20.73;57.10
60101;BME280;45978;53.646;55.930;2022-07-23T01:25:48;99059.66;;;21.03;55.40
60101;BME280;45978;53.646;55.930;2022-07-23T01:26:50;99049.69;;;21.26;55.31
60101;BME280;45978;53.646;55.930;2022-07-23T01:27:53;99055.81;;;21.59;54.42
60101;BME280;45978;53.646;55.930;2022-07-23T01:28:55;99063.28;;;21.96;53.21
60101;BME280;45978;53.646;55.930;2022-07-23T01:29:57;99048.38;;;22.13;52.35
60101;BME280;45978;53.646;55.930;2022-07-23T01:31:02;99061.47;;;22.47;51.65
60101;BME280;45978;53.646;55.930;2022-07-23T01:32:08;99071.06;;;22.69;50.83
60101;BME280;45978;53.646;55.930;2022-07-23T01:33:09;99070.50;;;22.94;49.93
60101;BME280;45978;53.646;55.930;2022-07-23T01:34:10;99062.47;;;23.14;49.26
60101;BME280;45978;53.646;55.930;2022-07-23T01:35:11;99065.38;;;23.40;48.37
60101;BME280;45978;53.646;55.930;2022-07-23T01:36:13;99056.13;;;23.62;47.59
60101;BME280;45978;53.646;55.930;2022-07-23T01:37:14;99057.09;;;23.81;47.06
60101;BME280;45978;53.646;55.930;2022-07-23T01:38:16;99062.06;;;24.03;46.61
60101;BME280;45978;53.646;55.930;2022-07-23T01:39:18;99059.97;;;24.25;46.15
60101;BME280;45978;53.646;55.930;2022-07-23T01:40:20;99061.06;;;24.50;45.59
60101;BME280;45978;53.646;55.930;2022-07-23T01:41:22;99057.13;;;24.72;44.97
60101;BME280;45978;53.646;55.930;2022-07-23T01:42:23;99061.84;;;24.96;44.27
60101;BME280;45978;53.646;55.930;2022-07-23T01:43:28;99056.44;;;25.14;42.94
60101;BME280;45978;53.646;55.930;2022-07-23T01:44:29;99055.75;;;25.30;42.92
60101;BME280;45978;53.646;55.930;2022-07-23T01:45:32;99057.41;;;25.49;42.39
60101;BME280;45978;53.646;55.930;2022-07-23T01:46:35;99061.06;;;25.74;41.94
60101;BME280;45978;53.646;55.930;2022-07-23T01:47:36;99056.84;;;25.98;41.68
60101;BME280;45978;53.646;55.930;2022-07-23T01:48:38;99046.66;;;26.26;40.79
60101;BME280;45978;53.646;55.930;2022-07-23T01:50:02;99054.84;;;26.59;40.28
60101;BME280;45978;53.646;55.930;2022-07-23T01:51:31;99048.28;;;26.70;39.86
60101;BME280;45978;53.646;55.930;2022-07-23T01:52:38;99051.19;;;26.84;39.68
60101;BME280;45978;53.646;55.930;2022-07-23T01:53:40;99053.03;;;27.00;39.06
60101;BME280;45978;53.646;55.930;2022-07-23T01:54:42;99042.41;;;27.15;38.87
60101;BME280;45978;53.646;55.930;2022-07-23T01:55:44;99044.97;;;27.25;38.36
60101;BME280;45978;53.646;55.930;2022-07-23T01:56:46;99043.91;;;27.51;38.17
60101;BME280;45978;53.646;55.930;2022-07-23T01:57:47;99056.88;;;27.55;37.91
60101;BME280;45978;53.646;55.930;2022-07-23T01:58:49;99037.66;;;27.50;38.09
60101;BME280;45978;53.646;55.930;2022-07-23T01:59:51;99038.53;;;27.26;38.15
60101;BME280;45978;53.646;55.930;2022-07-23T02:00:54;99048.16;;;27.37;37.92
60101;BME280;45978;53.646;55.930;2022-07-23T02:01:57;99056.19;;;27.53;37.84
60101;BME280;45978;53.646;55.930;2022-07-23T02:02:58;99033.53;;;27.79;37.46
60101;BME280;45978;53.646;55.930;2022-07-23T02:03:59;99052.66;;;28.09;37.11
60101;BME280;45978;53.646;55.930;2022-07-23T02:05:01;99041.09;;;28.23;36.72
60101;BME280;45978;53.646;55.930;2022-07-23T02:06:04;99047.84;;;28.58;36.18
60101;BME280;45978;53.646;55.930;2022-07-23T02:07:05;99055.41;;;28.86;35.45
60101;BME280;45978;53.646;55.930;2022-07-23T02:08:06;99057.44;;;29.07;35.33
60101;BME280;45978;53.646;55.930;2022-07-23T02:09:10;99059.47;;;29.28;34.79
60101;BME280;45978;53.646;55.930;2022-07-23T02:10:12;99048.09;;;29.33;34.69
60101;BME280;45978;53.646;55.930;2022-07-23T02:11:13;99045.97;;;29.58;34.12
60101;BME280;45978;53.646;55.930;2022-07-23T02:12:15;99053.06;;;29.59;34.39
60101;BME280;45978;53.646;55.930;2022-07-23T02:13:20;99047.03;;;29.72;33.79
60101;BME280;45978;53.646;55.930;2022-07-23T02:14:21;99055.47;;;29.77;33.94
60101;BME280;45978;53.646;55.930;2022-07-23T02:15:22;99045.06;;;29.80;33.50
60101;BME280;45978;53.646;55.930;2022-07-23T02:16:24;99043.78;;;29.91;33.51
60101;BME280;45978;53.646;55.930;2022-07-23T02:17:25;99058.38;;;30.12;33.50
60101;BME280;45978;53.646;55.930;2022-07-23T02:18:26;99024.81;;;29.91;33.20
60101;BME280;45978;53.646;55.930;2022-07-23T02:19:27;99053.13;;;30.25;32.96
60101;BME280;45978;53.646;55.930;2022-07-23T02:20:29;99045.66;;;30.27;32.76
60101;BME280;45978;53.646;55.930;2022-07-23T02:21:30;99057.47;;;30.56;32.70
60101;BME280;45978;53.646;55.930;2022-07-23T02:22:31;99048.81;;;30.67;32.14
60101;BME280;45978;53.646;55.930;2022-07-23T02:23:36;99005.34;;;30.54;32.23
60101;BME280;45978;53.646;55.930;2022-07-23T02:24:39;99029.97;;;30.80;31.60
60101;BME280;45978;53.646;55.930;2022-07-23T02:25:41;99057.53;;;30.99;31.98
60101;BME280;45978;53.646;55.930;2022-07-23T02:26:43;99057.81;;;31.11;31.80
60101;BME280;45978;53.646;55.930;2022-07-23T02:27:45;99061.94;;;31.28;31.52
60101;BME280;45978;53.646;55.930;2022-07-23T02:28:46;99053.97;;;31.48;31.13
60101;BME280;45978;53.646;55.930;2022-07-23T02:29:48;99055.13;;;31.39;31.36
60101;BME280;45978;53.646;55.930;2022-07-23T02:30:49;99056.91;;;31.53;31.18
60101;BME280;45978;53.646;55.930;2022-07-23T02:31:50;99055.34;;;31.16;31.51
60101;BME280;45978;53.646;55.930;2022-07-23T02:32:51;99052.78;;;31.08;31.48
60101;BME280;45978;53.646;55.930;2022-07-23T02:33:54;99057.06;;;30.95;31.94
60101;BME280;45978;53.646;55.930;2022-07-23T02:34:55;99044.44;;;30.30;32.65
60101;BME280;45978;53.646;55.930;2022-07-23T02:35:56;99054.59;;;29.91;33.74
60101;BME280;45978;53.646;55.930;2022-07-23T02:36:57;99042.22;;;30.18;33.08
60101;BME280;45978;53.646;55.930;2022-07-23T02:38:00;99058.16;;;30.43;32.89
60101;BME280;45978;53.646;55.930;2022-07-23T02:39:04;99060.44;;;30.83;32.45
60101;BME280;45978;53.646;55.930;2022-07-23T02:40:08;99063.09;;;31.19;31.50
60101;BME280;45978;53.646;55.930;2022-07-23T02:41:13;99052.16;;;31.62;31.04
60101;BME280;45978;53.646;55.930;2022-07-23T02:42:15;99047.41;;;31.71;31.00
60101;BME280;45978;53.646;55.930;2022-07-23T02:43:17;99048.47;;;31.70;31.05
60101;BME280;45978;53.646;55.930;2022-07-23T02:44:19;99057.81;;;31.11;31.76
60101;BME280;45978;53.646;55.930;2022-07-23T02:45:24;99058.63;;;31.05;31.76
60101;BME280;45978;53.646;55.930;2022-07-23T02:46:27;99050.38;;;31.48;31.06
60101;BME280;45978;53.646;55.930;2022-07-23T02:47:29;99055.81;;;30.98;31.58
60101;BME280;45978;53.646;55.930;2022-07-23T02:48:34;99043.66;;;30.72;32.16
60101;BME280;45978;53.646;55.930;2022-07-23T02:49:35;99057.03;;;30.74;32.30
60101;BME280;45978;53.646;55.930;2022-07-23T02:50:39;99057.03;;;31.17;32.09
60101;BME280;45978;53.646;55.930;2022-07-23T02:51:41;99049.72;;;31.74;31.05
60101;BME280;45978;53.646;55.930;2022-07-23T02:52:43;99036.94;;;32.03;30.58
60101;BME280;45978;53.646;55.930;2022-07-23T02:53:44;99044.44;;;32.55;29.98
60101;BME280;45978;53.646;55.930;2022-07-23T02:54:45;99050.94;;;32.68;29.45
60101;BME280;45978;53.646;55.930;2022-07-23T02:55:49;99040.59;;;32.23;30.27
60101;BME280;45978;53.646;55.930;2022-07-23T02:56:51;99051.31;;;32.45;29.74
60101;BME280;45978;53.646;55.930;2022-07-23T02:57:53;99051.50;;;32.36;30.17
60101;BME280;45978;53.646;55.930;2022-07-23T02:58:55;99058.41;;;31.97;30.50
60101;BME280;45978;53.646;55.930;2022-07-23T02:59:56;99046.84;;;32.24;30.46
60101;BME280;45978;53.646;55.930;2022-07-23T03:00:57;99050.22;;;31.91;30.78
60101;BME280;45978;53.646;55.930;2022-07-23T03:02:00;99062.59;;;31.58;31.24
60101;BME280;45978;53.646;55.930;2022-07-23T03:03:02;99051.75;;;31.65;30.92
60101;BME280;45978;53.646;55.930;2022-07-23T03:04:04;99060.56;;;32.09;30.98
60101;BME280;45978;53.646;55.930;2022-07-23T03:05:05;99048.13;;;32.34;30.11
60101;BME280;45978;53.646;55.930;2022-07-23T03:06:08;99022.38;;;32.17;30.28
60101;BME280;45978;53.646;55.930;2022-07-23T03:07:15;99057.66;;;31.75;30.90
60101;BME280;45978;53.646;55.930;2022-07-23T03:08:16;99059.63;;;31.32;31.61
60101;BME280;45978;53.646;55.930;2022-07-23T03:09:22;99058.34;;;31.28;31.56
60101;BME280;45978;53.646;55.930;2022-07-23T03:10:24;99055.13;;;31.11;32.06
60101;BME280;45978;53.646;55.930;2022-07-23T03:11:26;99065.66;;;31.49;31.86
60101;BME280;45978;53.646;55.930;2022-07-23T03:12:29;99066.56;;;31.63;31.54
60101;BME280;45978;53.646;55.930;2022-07-23T03:13:31;99058.53;;;32.17;31.26
60101;BME280;45978;53.646;55.930;2022-07-23T03:14:33;99056.38;;;32.61;29.86
60101;BME280;45978;53.646;55.930;2022-07-23T03:15:34;99059.56;;;32.85;29.70
60101;BME280;45978;53.646;55.930;2022-07-23T03:16:38;99055.84;;;33.26;29.03
60101;BME280;45978;53.646;55.930;2022-07-23T03:17:40;99030.09;;;33.35;29.19
60101;BME280;45978;53.646;55.930;2022-07-23T03:18:41;99051.78;;;33.88;28.79
60101;BME280;45978;53.646;55.930;2022-07-23T03:19:43;99052.06;;;34.25;28.40
60101;BME280;45978;53.646;55.930;2022-07-23T03:20:44;99041.81;;;34.59;27.53
60101;BME280;45978;53.646;55.930;2022-07-23T03:21:45;99041.13;;;34.70;27.54
60101;BME280;45978;53.646;55.930;2022-07-23T03:22:47;99046.00;;;34.94;27.22
60101;BME280;45978;53.646;55.930;2022-07-23T03:23:50;99066.19;;;35.18;27.04
60101;BME280;45978;53.646;55.930;2022-07-23T03:24:52;99054.59;;;35.47;26.68
60101;BME280;45978;53.646;55.930;2022-07-23T03:26:05;99058.16;;;35.73;26.34
60101;BME280;45978;53.646;55.930;2022-07-23T03:27:09;99063.47;;;36.05;26.23
60101;BME280;45978;53.646;55.930;2022-07-23T03:28:11;99061.41;;;36.00;25.75
60101;BME280;45978;53.646;55.930;2022-07-23T03:29:12;99059.31;;;36.14;26.14
60101;BME280;45978;53.646;55.930;2022-07-23T03:30:14;99065.03;;;36.31;25.62
60101;BME280;45978;53.646;55.930;2022-07-23T03:31:16;99066.47;;;36.34;25.37
60101;BME280;45978;53.646;55.930;2022-07-23T03:32:21;99048.25;;;36.09;25.06
60101;BME280;45978;53.646;55.930;2022-07-23T03:33:23;99056.47;;;35.72;26.02
60101;BME280;45978;53.646;55.930;2022-07-23T03:34:28;99066.84;;;36.00;26.01
60101;BME280;45978;53.646;55.930;2022-07-23T03:35:29;99055.78;;;35.77;25.94
60101;BME280;45978;53.646;55.930;2022-07-23T03:36:51;99067.41;;;35.91;26.22
60101;BME280;45978;53.646;55.930;2022-07-23T03:37:55;99057.44;;;36.33;25.66
60101;BME280;45978;53.646;55.930;2022-07-23T03:38:56;99056.66;;;36.44;25.56
60101;BME280;45978;53.646;55.930;2022-07-23T03:39:59;99046.69;;;36.50;25.05
60101;BME280;45978;53.646;55.930;2022-07-23T03:41:00;99033.13;;;36.74;25.39
60101;BME280;45978;53.646;55.930;2022-07-23T03:42:02;99046.50;;;37.05;25.24
60101;BME280;45978;53.646;55.930;2022-07-23T03:43:04;99051.66;;;37.25;24.72
60101;BME280;45978;53.646;55.930;2022-07-23T03:44:08;99053.94;;;37.40;24.41
60101;BME280;45978;53.646;55.930;2022-07-23T03:45:09;99053.00;;;37.70;24.73
60101;BME280;45978;53.646;55.930;2022-07-23T03:46:11;99057.16;;;37.73;24.18
60101;BME280;45978;53.646;55.930;2022-07-23T03:47:12;99061.91;;;37.77;23.86
60101;BME280;45978;53.646;55.930;2022-07-23T03:48:17;99058.69;;;37.80;23.75
60101;BME280;45978;53.646;55.930;2022-07-23T03:49:20;99061.06;;;37.89;23.71
60101;BME280;45978;53.646;55.930;2022-07-23T03:50:21;99044.59;;;37.89;23.71
60101;BME280;45978;53.646;55.930;2022-07-23T03:51:22;99069.97;;;38.19;23.50
60101;BME280;45978;53.646;55.930;2022-07-23T03:52:24;99057.59;;;37.46;24.12
60101;BME280;45978;53.646;55.930;2022-07-23T03:53:28;99057.81;;;37.09;24.76
60101;BME280;45978;53.646;55.930;2022-07-23T03:54:29;99054.63;;;37.12;24.77
60101;BME280;45978;53.646;55.930;2022-07-23T03:55:33;99060.13;;;37.48;24.24
60101;BME280;45978;53.646;55.930;2022-07-23T03:56:54;99052.72;;;37.83;23.80
60101;BME280;45978;53.646;55.930;2022-07-23T03:57:57;99050.66;;;38.02;23.62
60101;BME280;45978;53.646;55.930;2022-07-23T03:58:58;99048.50;;;38.16;23.13
60101;BME280;45978;53.646;55.930;2022-07-23T04:00:04;99045.47;;;38.30;23.07
60101;BME280;45978;53.646;55.930;2022-07-23T04:01:14;99037.75;;;38.55;22.82
60101;BME280;45978;53.646;55.930;2022-07-23T04:02:15;99053.81;;;38.63;23.03
60101;BME280;45978;53.646;55.930;2022-07-23T04:03:18;99041.09;;;38.74;22.59
60101;BME280;45978;53.646;55.930;2022-07-23T04:04:19;99047.09;;;38.88;22.63
60101;BME280;45978;53.646;55.930;2022-07-23T04:05:20;99047.91;;;38.72;22.72
60101;BME280;45978;53.646;55.930;2022-07-23T04:06:26;99042.28;;;38.78;22.47
60101;BME280;45978;53.646;55.930;2022-07-23T04:07:30;99045.38;;;38.99;22.15
60101;BME280;45978;53.646;55.930;2022-07-23T04:08:37;99030.72;;;38.76;22.31
60101;BME280;45978;53.646;55.930;2022-07-23T04:09:41;99038.94;;;38.93;22.17
60101;BME280;45978;53.646;55.930;2022-07-23T04:10:42;99034.53;;;38.58;22.43
60101;BME280;45978;53.646;55.930;2022-07-23T04:11:45;99043.81;;;38.17;22.81
60101;BME280;45978;53.646;55.930;2022-07-23T04:12:48;99049.28;;;38.29;22.90
60101;BME280;45978;53.646;55.930;2022-07-23T04:13:49;99046.97;;;37.97;23.36
60101;BME280;45978;53.646;55.930;2022-07-23T04:14:51;99050.22;;;37.94;23.12
60101;BME280;45978;53.646;55.930;2022-07-23T04:15:52;99047.22;;;37.83;23.54
60101;BME280;45978;53.646;55.930;2022-07-23T04:16:53;99040.41;;;38.10;23.07
60101;BME280;45978;53.646;55.930;2022-07-23T04:17:57;99038.28;;;38.29;22.88
60101;BME280;45978;53.646;55.930;2022-07-23T04:19:05;99039.91;;;38.53;22.74
60101;BME280;45978;53.646;55.930;2022-07-23T04:20:13;99038.56;;;39.01;22.70
60101;BME280;45978;53.646;55.930;2022-07-23T04:21:22;99034.81;;;39.08;22.22
60101;BME280;45978;53.646;55.930;2022-07-23T04:22:24;99038.06;;;39.21;22.08
60101;BME280;45978;53.646;55.930;2022-07-23T04:23:28;99029.50;;;39.18;22.59
60101;BME280;45978;53.646;55.930;2022-07-23T04:24:29;99031.81;;;39.43;22.17
60101;BME280;45978;53.646;55.930;2022-07-23T04:25:31;99041.69;;;39.61;22.04
60101;BME280;45978;53.646;55.930;2022-07-23T04:26:32;99042.97;;;39.53;22.02
60101;BME280;45978;53.646;55.930;2022-07-23T04:27:33;99030.13;;;39.42;21.84
60101;BME280;45978;53.646;55.930;2022-07-23T04:28:34;99042.22;;;39.41;21.43
60101;BME280;45978;53.646;55.930;2022-07-23T04:29:36;99033.81;;;39.48;21.26
60101;BME280;45978;53.646;55.930;2022-07-23T04:30:37;99033.50;;;39.66;21.49
60101;BME280;45978;53.646;55.930;2022-07-23T04:31:40;99041.75;;;39.66;21.75
60101;BME280;45978;53.646;55.930;2022-07-23T04:32:42;99029.66;;;39.67;21.47
60101;BME280;45978;53.646;55.930;2022-07-23T04:33:52;99037.44;;;39.36;21.57
60101;BME280;45978;53.646;55.930;2022-07-23T04:34:54;99035.03;;;39.40;21.79
60101;BME280;45978;53.646;55.930;2022-07-23T04:36:00;99034.13;;;39.51;21.61
60101;BME280;45978;53.646;55.930;2022-07-23T04:37:02;99041.16;;;39.64;21.30
60101;BME280;45978;53.646;55.930;2022-07-23T04:38:05;99035.97;;;39.46;21.36
60101;BME280;45978;53.646;55.930;2022-07-23T04:39:06;99038.31;;;39.20;21.56
60101;BME280;45978;53.646;55.930;2022-07-23T04:40:08;99032.81;;;39.03;21.37
60101;BME280;45978;53.646;55.930;2022-07-23T04:41:10;99035.84;;;38.90;21.50
60101;BME280;45978;53.646;55.930;2022-07-23T04:42:13;99033.63;;;38.87;21.44
60101;BME280;45978;53.646;55.930;2022-07-23T04:43:14;99030.22;;;39.13;21.27
60101;BME280;45978;53.646;55.930;2022-07-23T04:44:20;99033.78;;;39.31;21.22
60101;BME280;45978;53.646;55.930;2022-07-23T04:45:22;99038.84;;;39.39;20.86
60101;BME280;45978;53.646;55.930;2022-07-23T04:46:28;99028.31;;;39.48;20.84
60101;BME280;45978;53.646;55.930;2022-07-23T04:47:31;99032.81;;;39.20;21.08
60101;BME280;45978;53.646;55.930;2022-07-23T04:48:33;99036.38;;;39.04;21.54
60101;BME280;45978;53.646;55.930;2022-07-23T04:49:42;99029.06;;;38.47;21.47
60101;BME280;45978;53.646;55.930;2022-07-23T04:50:46;99038.31;;;38.57;21.88
60101;BME280;45978;53.646;55.930;2022-07-23T04:51:57;99031.75;;;38.30;21.99
60101;BME280;45978;53.646;55.930;2022-07-23T04:53:00;99032.03;;;38.16;21.45
60101;BME280;45978;53.646;55.930;2022-07-23T04:54:01;99028.13;;;38.12;21.67
60101;BME280;45978;53.646;55.930;2022-07-23T04:55:05;99034.56;;;38.06;21.74
60101;BME280;45978;53.646;55.930;2022-07-23T04:56:06;99032.19;;;38.10;21.81
60101;BME280;45978;53.646;55.930;2022-07-23T04:57:08;99032.97;;;38.22;21.26
60101;BME280;45978;53.646;55.930;2022-07-23T04:58:09;99031.75;;;38.30;21.58
60101;BME280;45978;53.646;55.930;2022-07-23T04:59:10;99034.31;;;38.36;21.56
60101;BME280;45978;53.646;55.930;2022-07-23T05:00:13;99042.44;;;37.91;22.39
60101;BME280;45978;53.646;55.930;2022-07-23T05:01:14;99034.34;;;37.96;22.34
60101;BME280;45978;53.646;55.930;2022-07-23T05:02:16;99028.13;;;38.00;21.90
60101;BME280;45978;53.646;55.930;2022-07-23T05:03:18;99038.97;;;37.95;21.75
60101;BME280;45978;53.646;55.930;2022-07-23T05:04:22;99035.44;;;37.83;22.21
60101;BME280;45978;53.646;55.930;2022-07-23T05:05:25;99025.88;;;37.97;22.36
60101;BME280;45978;53.646;55.930;2022-07-23T05:06:30;99028.22;;;38.17;22.09
60101;BME280;45978;53.646;55.930;2022-07-23T05:07:31;99021.84;;;38.29;21.88
60101;BME280;45978;53.646;55.930;2022-07-23T05:08:32;99034.16;;;38.55;21.75
60101;BME280;45978;53.646;55.930;2022-07-23T05:09:38;99028.75;;;38.60;21.47
60101;BME280;45978;53.646;55.930;2022-07-23T05:10:42;99039.09;;;38.70;21.48
60101;BME280;45978;53.646;55.930;2022-07-23T05:11:43;99035.16;;;38.66;21.57
60101;BME280;45978;53.646;55.930;2022-07-23T05:12:49;99037.34;;;38.35;21.23
60101;BME280;45978;53.646;55.930;2022-07-23T05:13:52;99025.25;;;38.07;21.77
60101;BME280;45978;53.646;55.930;2022-07-23T05:14:55;99038.06;;;37.90;22.04
60101;BME280;45978;53.646;55.930;2022-07-23T05:15:56;99039.31;;;37.99;21.65
60101;BME280;45978;53.646;55.930;2022-07-23T05:16:58;99040.66;;;37.96;21.42
60101;BME280;45978;53.646;55.930;2022-07-23T05:18:00;99032.78;;;38.00;21.73
60101;BME280;45978;53.646;55.930;2022-07-23T05:19:02;99030.88;;;38.00;21.93
60101;BME280;45978;53.646;55.930;2022-07-23T05:20:05;99021.00;;;37.99;21.91
60101;BME280;45978;53.646;55.930;2022-07-23T05:21:07;99027.56;;;37.87;21.69
60101;BME280;45978;53.646;55.930;2022-07-23T05:22:10;99027.38;;;38.05;21.51
60101;BME280;45978;53.646;55.930;2022-07-23T05:23:11;99026.47;;;37.99;21.41
60101;BME280;45978;53.646;55.930;2022-07-23T05:24:20;99032.56;;;37.90;21.90
60101;BME280;45978;53.646;55.930;2022-07-23T05:25:22;99035.56;;;37.76;21.88
60101;BME280;45978;53.646;55.930;2022-07-23T05:26:30;99031.66;;;37.37;21.91
60101;BME280;45978;53.646;55.930;2022-07-23T05:27:32;99032.72;;;37.48;21.92
60101;BME280;45978;53.646;55.930;2022-07-23T05:28:34;99020.19;;;37.75;22.02